Аэропорт: Кемерово. Кемерово

ICAO: UNEE

METAR:
2024-04-22 21:30:00
UNEE 222130Z 14001MPS 4300 -SHSN SCT007 OVC022CB M01/M01 Q1013 R23/CLRD60 NOSIG RMK QFE737
TAF:
2024-04-22 20:00:00
TAF UNEE 222000Z 2221/2321 30003G08MPS 8000 BKN011CB TXM01/2222Z TNM07/2321Z 
  TEMPO 2221/2304 1000 SHSN BKN002 BKN011CB 
  BECMG 2222/2224 31008G16MPS 
  BECMG 2304/2305 BKN040CB 
  BECMG 2311/2314 31003G08MPS